Time;durP1;ratioP1;P1;durP2;ratioP2;P2;SDS_P1;SDS_P2;PMS_P1;PMS_P2;Temp;Humidity;BMP_temperature;BMP_pressure;BME280_temperature;BME280_humidity;BME280_pressure;Samples;Min_cycle;Max_cycle;Signal;HPM_P1;HPM_P2
2022/08/27 00:03:35;;;;;;;1999.90;999.90;;;;;;;18.95;93.34;99160.31;8215572;28;20057;-78
2022/08/27 00:07:37;;;;;;;1999.90;999.90;;;;;;;18.91;93.27;99153.47;8216904;28;20117;-78
2022/08/27 00:11:39;;;;;;;1999.90;999.90;;;;;;;18.88;92.83;99152.75;8206366;28;20057;-78
2022/08/27 00:15:42;;;;;;;1999.90;999.90;;;;;;;18.92;92.51;99151.69;8222746;28;20117;-78
2022/08/27 00:19:44;;;;;;;1999.90;999.90;;;;;;;18.92;92.14;99147.28;8203428;28;20039;-78
2022/08/27 00:23:45;;;;;;;1999.90;999.90;;;;;;;18.84;91.51;99151.16;8206985;28;20046;-78
2022/08/27 00:27:47;;;;;;;1999.90;999.90;;;;;;;18.64;91.50;99158.09;8216449;28;20577;-78
2022/08/27 00:31:48;;;;;;;1999.90;999.90;;;;;;;18.51;92.16;99145.50;8219422;28;20142;-77
2022/08/27 00:35:55;;;;;;;1999.90;999.90;;;;;;;18.52;92.65;99145.44;8208324;28;20061;-77
2022/08/27 00:39:56;;;;;;;1999.90;999.90;;;;;;;18.49;93.15;99148.19;8202453;28;20039;-78
2022/08/27 00:44:00;;;;;;;1999.90;999.90;;;;;;;18.47;92.93;99139.47;8213108;28;20034;-78
2022/08/27 00:48:03;;;;;;;1999.90;999.90;;;;;;;18.42;92.93;99130.94;8192790;28;20118;-78
2022/08/27 00:52:28;;;;;;;1999.90;999.90;;;;;;;18.31;92.96;99136.63;8207595;28;20042;-78
2022/08/27 00:56:43;;;;;;;;;;;;;;;18.26;93.34;99135.94;8194342;28;20081;-78
2022/08/27 01:00:51;;;;;;;1999.90;999.90;;;;;;;18.26;93.48;99135.09;8212676;28;20339;-78
2022/08/27 01:05:06;;;;;;;1999.90;999.90;;;;;;;18.24;94.05;99142.19;8216058;28;20049;-78
2022/08/27 01:09:12;;;;;;;1999.90;999.90;;;;;;;18.20;94.31;99141.44;8215700;28;20047;-79
2022/08/27 01:13:23;;;;;;;1999.90;999.90;;;;;;;18.18;94.46;99139.81;8201120;28;20082;-79
2022/08/27 01:17:46;;;;;;;1999.90;999.90;;;;;;;18.09;95.23;99138.38;8206598;28;20130;-79
2022/08/27 01:22:23;;;;;;;1999.90;999.90;;;;;;;18.06;96.06;99141.97;8212850;28;20490;-79
2022/08/27 01:26:25;;;;;;;1999.90;999.90;;;;;;;18.10;96.66;99132.19;8214080;28;20138;-79
2022/08/27 01:30:28;;;;;;;1999.90;999.90;;;;;;;18.21;96.71;99137.06;8217208;28;20525;-78
2022/08/27 01:34:29;;;;;;;1999.90;999.90;;;;;;;18.26;96.21;99135.94;8229821;28;20522;-79
2022/08/27 01:38:32;;;;;;;1999.90;999.90;;;;;;;18.28;96.10;99133.25;8250756;28;20074;-79
2022/08/27 01:42:38;;;;;;;1999.90;999.90;;;;;;;18.34;95.79;99131.25;8248990;28;20104;-79
2022/08/27 01:46:40;;;;;;;1999.90;999.90;;;;;;;18.40;96.03;99130.13;8224813;28;20046;-78
2022/08/27 01:50:49;;;;;;;1999.90;999.90;;;;;;;18.51;96.19;99127.94;8235827;28;20089;-80
2022/08/27 01:54:51;;;;;;;1999.90;999.90;;;;;;;18.54;95.87;99132.22;8230153;28;20050;-79
2022/08/27 01:58:53;;;;;;;1999.90;999.90;;;;;;;18.56;95.83;99128.59;8243048;28;20046;-79
2022/08/27 02:02:56;;;;;;;1999.90;999.90;;;;;;;18.53;95.08;99134.00;8249257;28;20442;-79
2022/08/27 02:06:58;;;;;;;1999.90;999.90;;;;;;;18.53;95.34;99138.41;8249297;28;20046;-79
2022/08/27 02:11:00;;;;;;;1999.90;999.90;;;;;;;18.52;95.22;99126.16;8266311;28;20049;-78
2022/08/27 02:15:09;;;;;;;1999.90;999.90;;;;;;;18.53;95.36;99123.47;8245551;28;20363;-78
2022/08/27 02:19:11;;;;;;;1999.90;999.90;;;;;;;18.51;95.31;99127.09;8257584;28;20066;-79
2022/08/27 02:23:15;;;;;;;1999.90;999.90;;;;;;;18.50;95.30;99125.38;8248777;28;20039;-79
2022/08/27 02:27:17;;;;;;;1999.90;999.90;;;;;;;18.49;95.49;99118.38;8250458;28;20046;-79
2022/08/27 02:31:19;;;;;;;1999.90;999.90;;;;;;;18.52;95.50;99113.03;8257078;28;20043;-79
2022/08/27 02:35:23;;;;;;;1999.90;999.90;;;;;;;18.53;95.21;99112.09;8207595;28;20050;-79
2022/08/27 02:39:24;;;;;;;1999.90;999.90;;;;;;;18.55;95.22;99112.88;8255915;28;20084;-79
2022/08/27 02:43:26;;;;;;;1999.90;999.90;;;;;;;18.56;95.42;99102.31;8241701;28;20057;-78
2022/08/27 02:47:28;;;;;;;1999.90;999.90;;;;;;;18.56;95.12;99098.81;8235059;28;20074;-78
2022/08/27 02:51:30;;;;;;;1999.90;999.90;;;;;;;18.50;95.51;99099.09;8222787;28;20417;-79
2022/08/27 02:55:32;;;;;;;1999.90;999.90;;;;;;;18.43;96.11;99093.19;8235225;28;20049;-79
2022/08/27 02:59:35;;;;;;;1999.90;999.90;;;;;;;18.36;96.38;99091.75;8220383;28;20075;-78
2022/08/27 03:03:37;;;;;;;1999.90;999.90;;;;;;;18.36;96.92;99089.13;8178742;28;20074;-79
2022/08/27 03:07:45;;;;;;;1999.90;999.90;;;;;;;18.40;96.99;99088.06;8195298;28;20071;-79
2022/08/27 03:11:47;;;;;;;1999.90;999.90;;;;;;;18.50;96.65;99083.31;8188001;28;20050;-79
2022/08/27 03:15:48;;;;;;;1999.90;999.90;;;;;;;18.55;96.35;99087.44;8205730;28;20039;-79
2022/08/27 03:19:52;;;;;;;1999.90;999.90;;;;;;;18.52;95.56;99089.34;8186523;28;20051;-79
2022/08/27 03:23:53;;;;;;;1999.90;999.90;;;;;;;18.41;95.72;99100.31;8179645;28;20483;-79
2022/08/27 03:27:55;;;;;;;1999.90;999.90;;;;;;;18.35;96.20;99100.56;8199995;28;20073;-78
2022/08/27 03:31:56;;;;;;;1999.90;999.90;;;;;;;18.38;96.29;99109.16;8185867;28;20078;-78
2022/08/27 03:35:58;;;;;;;1999.90;999.90;;;;;;;18.38;96.28;99105.69;8206438;28;20049;-78
2022/08/27 03:40:00;;;;;;;1999.90;999.90;;;;;;;18.37;96.06;99114.50;8194421;28;20515;-78
2022/08/27 03:44:08;;;;;;;1999.90;999.90;;;;;;;18.34;96.33;99115.47;8202498;28;20046;-78
2022/08/27 03:48:15;;;;;;;1999.90;999.90;;;;;;;18.29;96.86;99120.03;8189467;28;20058;-78
2022/08/27 03:52:18;;;;;;;1999.90;999.90;;;;;;;18.31;96.94;99117.34;8183979;28;20464;-79
2022/08/27 03:56:19;;;;;;;1999.90;999.90;;;;;;;18.34;96.87;99117.25;8196114;28;20054;-79
2022/08/27 04:00:23;;;;;;;1999.90;999.90;;;;;;;18.30;96.71;99105.13;8211447;28;20050;-78
2022/08/27 04:04:25;;;;;;;1999.90;999.90;;;;;;;18.30;97.50;99105.97;8193972;28;20048;-78
2022/08/27 04:08:26;;;;;;;1999.90;999.90;;;;;;;18.31;97.38;99107.72;8197931;28;20372;-78
2022/08/27 04:12:28;;;;;;;1999.90;999.90;;;;;;;18.33;97.10;99107.66;8176455;28;20789;-78
2022/08/27 04:16:31;;;;;;;;;;;;;;;18.34;97.13;99106.75;8202223;28;20035;-78
2022/08/27 04:20:32;;;;;;;1999.90;999.90;;;;;;;18.34;96.89;99110.22;8196015;28;19933;-78
2022/08/27 04:24:36;;;;;;;1999.90;999.90;;;;;;;18.36;96.99;99102.28;8193686;28;20047;-78
2022/08/27 04:28:38;;;;;;;1999.90;999.90;;;;;;;18.37;97.22;99096.09;8200677;28;20047;-78
2022/08/27 04:32:49;;;;;;;1999.90;999.90;;;;;;;18.38;96.90;99095.19;8190465;28;20111;-77
2022/08/27 04:36:55;;;;;;;1999.90;999.90;;;;;;;18.40;96.77;99096.81;8169514;28;20051;-78
2022/08/27 04:45:16;;;;;;;1999.90;999.90;;;;;;;18.30;96.19;99097.25;8174590;29;20139;-79
2022/08/27 04:49:18;;;;;;;1999.90;999.90;;;;;;;18.21;96.96;99100.25;8178331;29;20122;-79
2022/08/27 04:53:20;;;;;;;1999.90;999.90;;;;;;;18.19;97.24;99097.69;8167222;29;20356;-79
2022/08/27 04:57:23;;;;;;;1999.90;999.90;;;;;;;18.21;97.53;99095.84;8155771;29;20400;-79
2022/08/27 05:01:31;;;;;;;1999.90;999.90;;;;;;;18.25;97.66;99099.22;8150720;29;20082;-79
2022/08/27 05:05:33;;;;;;;1999.90;999.90;;;;;;;18.23;97.58;99099.28;8171882;29;20051;-78
2022/08/27 05:09:35;;;;;;;;;;;;;;;18.27;97.61;99098.22;8164495;29;20059;-79
2022/08/27 05:13:37;;;;;;;1999.90;999.90;;;;;;;18.33;96.89;99103.25;8174495;29;20350;-78
2022/08/27 05:17:38;;;;;;;1999.90;999.90;;;;;;;18.35;96.44;99093.53;8158468;29;20044;-79
2022/08/27 05:21:46;;;;;;;1999.90;999.90;;;;;;;18.27;96.27;99092.13;8145198;29;20048;-78
2022/08/27 05:25:55;;;;;;;1999.90;999.90;;;;;;;18.21;96.68;99095.00;8159323;29;20751;-79
2022/08/27 05:29:57;;;;;;;1999.90;999.90;;;;;;;18.23;97.05;99095.78;8139759;29;20079;-76
2022/08/27 05:34:00;;;;;;;1999.90;999.90;;;;;;;18.27;96.89;99092.13;8147379;28;20054;-76
2022/08/27 05:38:12;;;;;;;1999.90;999.90;;;;;;;18.31;96.84;99097.22;8203406;28;20051;-77
2022/08/27 05:42:13;;;;;;;1999.90;999.90;;;;;;;18.33;96.61;99100.63;8180051;28;20749;-79
2022/08/27 05:46:19;;;;;;;1999.90;999.90;;;;;;;18.30;97.18;99099.88;8168310;28;20085;-79
2022/08/27 05:50:20;;;;;;;1999.90;999.90;;;;;;;18.32;97.44;99095.44;8201398;28;20666;-79
2022/08/27 05:54:24;;;;;;;1999.90;999.90;;;;;;;18.34;97.25;99094.44;8179682;28;20050;-79
2022/08/27 06:02:45;;;;;;;1999.90;999.90;;;;;;;18.51;97.15;99087.66;8195645;28;20147;-79
2022/08/27 06:06:49;;;;;;;1999.90;999.90;;;;;;;18.57;96.57;99093.50;8202362;28;20039;-79
2022/08/27 06:10:51;;;;;;;1999.90;999.90;;;;;;;18.66;96.19;99093.13;8200571;28;20074;-79
2022/08/27 06:14:52;;;;;;;1999.90;999.90;;;;;;;18.76;95.67;99096.25;8193664;28;20134;-79
2022/08/27 06:18:56;;;;;;;1999.90;999.90;;;;;;;18.87;94.89;99101.06;8187505;28;20039;-78
2022/08/27 06:22:57;;;;;;;;;;;;;;;19.00;95.32;99107.47;8180052;28;20141;-80
2022/08/27 06:26:59;;;;;;;1999.90;999.90;;;;;;;19.13;95.22;99111.28;8185020;28;19972;-80
2022/08/27 06:31:05;;;;;;;1999.90;999.90;;;;;;;19.20;94.60;99109.25;8179577;28;20118;-79
2022/08/27 06:35:13;;;;;;;1999.90;999.90;;;;;;;19.31;93.90;99120.16;8190003;28;20737;-80
2022/08/27 06:39:21;;;;;;;1999.90;999.90;;;;;;;19.44;94.51;99115.22;8183593;28;20042;-80
2022/08/27 06:43:47;;;;;;;1999.90;999.90;;;;;;;19.54;93.65;99122.66;8218830;28;20050;-80
2022/08/27 06:47:49;;;;;;;;;;;;;;;19.65;93.32;99121.31;8205424;28;20051;-80
2022/08/27 06:51:58;;;;;;;1999.90;999.90;;;;;;;19.71;92.67;99128.94;8223810;28;19922;-81
2022/08/27 06:56:00;;;;;;;;;;;;;;;19.87;92.28;99132.56;8207357;28;20074;-79
2022/08/27 07:00:04;;;;;;;1999.90;999.90;;;;;;;19.90;92.17;99130.63;8220389;28;19930;-79
2022/08/27 07:04:12;;;;;;;1999.90;999.90;;;;;;;20.00;91.51;99136.34;8216090;28;20320;-79
2022/08/27 07:08:14;;;;;;;1999.90;999.90;;;;;;;20.08;91.26;99138.63;8219237;28;20055;-79
2022/08/27 07:12:15;;;;;;;1999.90;999.90;;;;;;;20.07;90.98;99136.91;8215867;28;20415;-80
2022/08/27 07:16:20;;;;;;;1999.90;999.90;;;;;;;20.14;90.28;99130.44;8195593;28;20089;-79
2022/08/27 07:20:24;;;;;;;1999.90;999.90;;;;;;;20.19;89.45;99138.97;8196590;28;20109;-79
2022/08/27 07:24:26;;;;;;;1999.90;999.90;;;;;;;20.23;88.49;99138.75;8201516;28;20066;-79
2022/08/27 07:28:28;;;;;;;1999.90;999.90;;;;;;;20.28;87.74;99137.66;8219724;28;20451;-79
2022/08/27 07:32:29;;;;;;;1999.90;999.90;;;;;;;20.37;86.67;99129.31;8209998;28;20591;-79
2022/08/27 07:36:34;;;;;;;1999.90;999.90;;;;;;;20.39;85.34;99135.38;8217541;28;20043;-80
2022/08/27 07:40:35;;;;;;;1999.90;999.90;;;;;;;20.43;85.30;99145.72;8223793;28;20046;-80
2022/08/27 07:44:41;;;;;;;1999.90;999.90;;;;;;;20.41;84.20;99152.00;8217162;28;20043;-80
2022/08/27 07:48:47;;;;;;;1999.90;999.90;;;;;;;20.43;84.74;99155.41;8192766;28;20054;-80
2022/08/27 07:52:52;;;;;;;1999.90;999.90;;;;;;;20.44;86.70;99162.41;8209427;28;20061;-80
2022/08/27 07:56:55;;;;;;;1999.90;999.90;;;;;;;20.48;87.03;99164.84;8196542;28;20046;-80
2022/08/27 08:01:02;;;;;;;1999.90;999.90;;;;;;;20.49;87.09;99158.63;8212462;28;20464;-80
2022/08/27 08:05:05;;;;;;;1999.90;999.90;;;;;;;20.58;86.41;99164.38;8210802;28;20185;-80
2022/08/27 08:09:07;;;;;;;1999.90;999.90;;;;;;;20.61;85.37;99165.06;8201220;28;20209;-80
2022/08/27 08:13:12;;;;;;;1999.90;999.90;;;;;;;20.67;85.34;99166.59;8213033;28;20043;-80
2022/08/27 08:17:15;;;;;;;1999.90;999.90;;;;;;;20.73;82.64;99164.50;8216392;28;20054;-80
2022/08/27 08:21:19;;;;;;;1999.90;999.90;;;;;;;20.85;81.92;99168.31;8213150;28;20061;-80
2022/08/27 08:25:22;;;;;;;1999.90;999.90;;;;;;;21.01;81.30;99171.03;8177013;28;20528;-80
2022/08/27 08:29:44;;;;;;;1999.90;999.90;;;;;;;21.15;80.03;99180.88;8217648;28;20039;-80
2022/08/27 08:33:52;;;;;;;1999.90;999.90;;;;;;;21.29;79.03;99179.28;8215107;28;20514;-80
2022/08/27 08:38:05;;;;;;;1999.90;999.90;;;;;;;21.31;76.14;99177.41;8214698;28;20046;-80
2022/08/27 08:42:44;;;;;;;1999.90;999.90;;;;;;;21.38;76.68;99170.03;8199734;28;20054;-80
2022/08/27 08:47:14;;;;;;;1999.90;999.90;;;;;;;21.46;77.55;99174.91;8220476;28;20610;-80
2022/08/27 08:51:41;;;;;;;;;;;;;;;21.50;76.94;99173.81;8242716;28;20491;-80
2022/08/27 08:55:59;;;;;;;1999.90;999.90;;;;;;;21.54;76.07;99185.91;8231891;28;21205;-79
2022/08/27 09:00:12;;;;;;;1999.90;999.90;;;;;;;21.58;75.61;99187.50;8243986;28;20049;-79
2022/08/27 09:04:31;;;;;;;1999.90;999.90;;;;;;;21.61;75.95;99189.97;8226072;28;20531;-80
2022/08/27 09:08:41;;;;;;;1999.90;999.90;;;;;;;21.65;75.55;99189.72;8241553;28;20054;-80
2022/08/27 09:13:20;;;;;;;1999.90;999.90;;;;;;;21.67;73.65;99190.47;8253783;28;20757;-81
2022/08/27 09:17:25;;;;;;;1999.90;999.90;;;;;;;21.68;74.25;99193.97;8223082;28;20039;-81
2022/08/27 09:21:53;;;;;;;1999.90;999.90;;;;;;;21.72;75.13;99203.44;8250296;28;20235;-80
2022/08/27 09:26:27;;;;;;;1999.90;999.90;;;;;;;21.78;74.34;99189.94;8253273;28;20057;-81
2022/08/27 09:31:06;;;;;;;1999.90;999.90;;;;;;;21.87;73.23;99188.56;8255894;28;20157;-80
2022/08/27 09:35:44;;;;;;;1999.90;999.90;;;;;;;21.95;73.55;99194.31;8226788;28;20051;-81
2022/08/27 09:40:30;;;;;;;1999.90;999.90;;;;;;;22.04;72.71;99191.16;8210260;28;20054;-81
2022/08/27 09:45:11;;;;;;;1999.90;999.90;;;;;;;22.18;72.32;99191.28;8212708;28;20399;-81
2022/08/27 09:49:20;;;;;;;1999.90;999.90;;;;;;;22.29;71.98;99196.00;8194962;28;20059;-80
2022/08/27 09:54:13;;;;;;;1999.90;999.90;;;;;;;22.44;71.79;99194.25;8219619;28;20055;-80
2022/08/27 09:58:41;;;;;;;1999.90;999.90;;;;;;;22.63;69.70;99191.47;8207639;28;20047;-81
2022/08/27 10:02:52;;;;;;;1999.90;999.90;;;;;;;22.81;69.34;99188.63;8211069;28;20090;-80
2022/08/27 10:07:23;;;;;;;1999.90;999.90;;;;;;;22.99;68.40;99184.09;8207681;28;20167;-80
2022/08/27 10:12:09;;;;;;;1999.90;999.90;;;;;;;23.11;68.53;99180.69;8209699;28;20465;-80
2022/08/27 10:17:16;;;;;;;1999.90;999.90;;;;;;;23.28;66.76;99187.63;8196490;28;20054;-81
2022/08/27 10:21:28;;;;;;;1999.90;999.90;;;;;;;23.38;66.40;99193.25;8143002;28;20060;-81
2022/08/27 10:26:09;;;;;;;1999.90;999.90;;;;;;;23.45;65.80;99187.47;8213078;28;20125;-80
2022/08/27 10:30:35;;;;;;;1999.90;999.90;;;;;;;23.51;63.79;99189.75;8215836;28;20447;-81
2022/08/27 10:35:12;;;;;;;1999.90;999.90;;;;;;;23.57;64.27;99195.69;8227998;28;20805;-80
2022/08/27 10:40:05;;;;;;;1999.90;999.90;;;;;;;23.65;64.30;99188.09;8212863;28;20051;-81
2022/08/27 10:44:54;;;;;;;1999.90;999.90;;;;;;;23.68;63.72;99182.59;8217470;28;20055;-80
2022/08/27 10:50:01;;;;;;;1999.90;999.90;;;;;;;23.64;62.96;99184.59;8196623;28;20134;-80
2022/08/27 10:54:31;;;;;;;1999.90;999.90;;;;;;;23.64;63.93;99192.56;8223585;28;20038;-81
2022/08/27 10:59:18;;;;;;;1999.90;999.90;;;;;;;23.61;64.10;99187.44;8224890;28;20051;-80
2022/08/27 11:04:03;;;;;;;1999.90;999.90;;;;;;;23.60;63.75;99192.84;8202646;28;20384;-80
2022/08/27 11:08:50;;;;;;;1999.90;999.90;;;;;;;23.51;63.58;99187.09;8219488;28;20650;-80
2022/08/27 11:13:44;;;;;;;1999.90;999.90;;;;;;;23.40;64.58;99178.97;8222869;28;20064;-80
2022/08/27 11:19:08;;;;;;;1999.90;999.90;;;;;;;23.25;64.36;99179.03;8203095;28;20480;-79
2022/08/27 11:23:23;;;;;;;1999.90;999.90;;;;;;;23.15;67.00;99171.63;8206589;28;20077;-79
2022/08/27 11:42:52;;;;;;;1999.90;999.90;;;;;;;22.99;66.36;99173.50;10361705;22;20020;-80
2022/08/27 11:47:20;;;;;;;1999.90;999.90;;;;;;;22.99;66.24;99173.50;10266929;23;20075;-80
2022/08/27 11:51:35;;;;;;;1999.90;999.90;;;;;;;23.01;66.31;99165.44;10186110;23;20033;-78
2022/08/27 11:55:38;;;;;;;1999.90;999.90;;;;;;;23.01;65.75;99168.94;10202227;23;20668;-79
2022/08/27 11:59:42;;;;;;;1999.90;999.90;;;;;;;23.06;65.47;99163.38;10185322;23;20021;-78
2022/08/27 12:03:43;;;;;;;1999.90;999.90;;;;;;;23.09;65.74;99163.19;10178876;23;20025;-78
2022/08/27 12:07:50;;;;;;;1999.90;999.90;;;;;;;23.15;65.07;99163.66;10183997;23;20029;-78
2022/08/27 12:12:04;;;;;;;1999.90;999.90;;;;;;;23.28;64.61;99169.09;10183958;23;20853;-78
2022/08/27 12:16:14;;;;;;;1999.90;999.90;;;;;;;23.32;63.09;99164.47;10181248;23;20063;-78
2022/08/27 12:20:28;;;;;;;1999.90;999.90;;;;;;;23.40;63.18;99170.16;10187035;23;20610;-78
2022/08/27 12:24:48;;;;;;;1999.90;999.90;;;;;;;23.48;64.33;99166.09;10184368;23;20068;-78
2022/08/27 12:29:15;;;;;;;1999.90;999.90;;;;;;;23.49;62.55;99161.63;10161177;23;20028;-78
2022/08/27 12:33:17;;;;;;;1999.90;999.90;;;;;;;23.45;62.86;99160.97;10177479;23;20029;-78
2022/08/27 12:37:25;;;;;;;1999.90;999.90;;;;;;;23.46;62.99;99161.84;10177816;23;20028;-78
2022/08/27 12:41:38;;;;;;;1999.90;999.90;;;;;;;23.50;63.27;99158.91;10222183;23;20026;-79
2022/08/27 12:45:59;;;;;;;1999.90;999.90;;;;;;;23.49;62.48;99153.69;10188842;23;20403;-78
2022/08/27 12:50:01;;;;;;;1999.90;999.90;;;;;;;23.48;62.56;99157.28;10240646;23;20372;-78
2022/08/27 12:54:31;;;;;;;1999.90;999.90;;;;;;;23.49;62.03;99149.25;10222609;23;20056;-79
2022/08/27 12:58:46;;;;;;;1999.90;999.90;;;;;;;23.52;62.07;99149.06;10226908;23;20032;-80
2022/08/27 13:03:29;;;;;;;1999.90;999.90;;;;;;;23.61;61.54;99152.97;10227306;23;20051;-80
2022/08/27 13:07:37;;;;;;;1999.90;999.90;;;;;;;23.69;61.01;99149.84;10162018;23;20048;-77
2022/08/27 13:11:48;;;;;;;1999.90;999.90;;;;;;;23.81;60.84;99143.78;10226989;23;20439;-79
2022/08/27 13:15:54;;;;;;;1999.90;999.90;;;;;;;23.89;60.57;99144.19;10197905;23;20029;-79
2022/08/27 13:20:03;;;;;;;1999.90;999.90;;;;;;;24.01;60.34;99138.06;10228365;23;20812;-79
2022/08/27 13:24:05;;;;;;;;;;;;;;;24.10;59.44;99139.31;10227242;23;20017;-79
2022/08/27 13:28:15;;;;;;;1999.90;999.90;;;;;;;24.24;58.89;99133.13;10225979;23;19931;-79
2022/08/27 13:32:17;;;;;;;1999.90;999.90;;;;;;;24.33;59.14;99129.88;10221766;23;20085;-79
2022/08/27 13:36:35;;;;;;;1999.90;999.90;;;;;;;24.45;58.73;99131.75;10225809;23;20043;-79
2022/08/27 13:41:03;;;;;;;1999.90;999.90;;;;;;;24.52;59.33;99132.19;10243338;23;20060;-79
2022/08/27 13:45:06;;;;;;;1999.90;999.90;;;;;;;24.59;58.65;99133.47;10222457;23;20048;-79
2022/08/27 13:49:24;;;;;;;1999.90;999.90;;;;;;;24.63;58.35;99125.22;10223715;23;20472;-79
2022/08/27 13:57:51;;;;;;;1999.90;999.90;;;;;;;24.73;57.50;99125.44;10220684;23;20017;-79
2022/08/27 14:02:14;;;;;;;1999.90;999.90;;;;;;;24.73;57.11;99130.75;10219676;23;20338;-81
2022/08/27 14:06:54;;;;;;;1999.90;999.90;;;;;;;24.77;57.24;99118.13;10226871;23;20017;-81
2022/08/27 14:11:10;;;;;;;1999.90;999.90;;;;;;;24.82;57.01;99122.19;10228298;23;20075;-81
2022/08/27 14:15:44;;;;;;;1999.90;999.90;;;;;;;24.85;56.73;99114.03;10223306;23;20278;-81
2022/08/27 14:20:12;;;;;;;1999.90;999.90;;;;;;;24.88;57.12;99119.13;10216668;23;20025;-81
2022/08/27 14:24:21;;;;;;;1999.90;999.90;;;;;;;24.90;56.54;99119.88;10226760;23;20021;-80
2022/08/27 14:28:48;;;;;;;1999.90;999.90;;;;;;;24.90;57.03;99117.22;10227144;23;20071;-81
2022/08/27 14:33:01;;;;;;;1999.90;999.90;;;;;;;24.90;56.94;99116.34;10169974;23;20061;-80
2022/08/27 14:37:30;;;;;;;1999.90;999.90;;;;;;;24.91;57.09;99124.22;10164114;23;20021;-81
2022/08/27 14:41:44;;;;;;;1999.90;999.90;;;;;;;24.94;57.66;99117.84;10176423;23;20033;-80
2022/08/27 14:46:06;;;;;;;1999.90;999.90;;;;;;;24.87;55.76;99124.53;10170685;23;20420;-81
2022/08/27 14:50:38;;;;;;;1999.90;999.90;;;;;;;24.85;56.79;99119.34;10174795;23;20021;-80
2022/08/27 14:54:50;;;;;;;1999.90;999.90;;;;;;;24.88;57.10;99120.94;10175848;23;20026;-81
2022/08/27 14:59:14;;;;;;;1999.90;999.90;;;;;;;24.89;56.25;99117.31;10181981;23;20021;-81
2022/08/27 15:03:48;;;;;;;1999.90;999.90;;;;;;;24.92;56.04;99120.59;10171448;23;20029;-80
2022/08/27 15:08:23;;;;;;;1999.90;999.90;;;;;;;24.96;54.69;99119.47;10129103;23;20100;-80
2022/08/27 15:12:45;;;;;;;1999.90;999.90;;;;;;;24.99;54.89;99118.41;10175521;23;20116;-80
2022/08/27 15:17:05;;;;;;;1999.90;999.90;;;;;;;25.00;53.96;99120.13;10179357;23;20459;-80
2022/08/27 15:21:27;;;;;;;1999.90;999.90;;;;;;;25.03;54.67;99122.59;10147802;23;20022;-81
2022/08/27 15:26:25;;;;;;;1999.90;999.90;;;;;;;25.13;55.49;99112.16;10171731;23;20032;-80
2022/08/27 15:30:50;;;;;;;1999.90;999.90;;;;;;;25.28;54.65;99113.75;10169603;23;20033;-80
2022/08/27 15:35:06;;;;;;;1999.90;999.90;;;;;;;25.58;54.15;99108.13;10219949;23;20115;-80
2022/08/27 15:39:24;;;;;;;1999.90;999.90;;;;;;;25.86;52.21;99107.91;10225240;23;20029;-80
2022/08/27 15:43:53;;;;;;;1999.90;999.90;;;;;;;26.16;51.74;99107.47;10259637;23;20024;-80
2022/08/27 15:48:58;;;;;;;1999.90;999.90;;;;;;;26.34;51.59;99101.78;10249399;23;20024;-80
2022/08/27 15:53:11;;;;;;;1999.90;999.90;;;;;;;26.37;49.69;99102.41;10234177;23;20726;-80
2022/08/27 15:57:24;;;;;;;1999.90;999.90;;;;;;;26.53;50.21;99103.94;10266462;23;20024;-80
2022/08/27 16:01:36;;;;;;;1999.90;999.90;;;;;;;26.67;50.33;99093.13;10232215;23;20048;-79
2022/08/27 16:06:09;;;;;;;1999.90;999.90;;;;;;;26.69;50.29;99089.38;10251109;23;20456;-80
2022/08/27 16:10:30;;;;;;;1999.90;999.90;;;;;;;26.85;49.77;99091.72;10262431;23;20108;-80
2022/08/27 16:14:58;;;;;;;1999.90;999.90;;;;;;;26.95;48.89;99091.88;10271414;23;20099;-79
2022/08/27 16:19:00;;;;;;;1999.90;999.90;;;;;;;26.95;48.82;99097.22;10293369;23;20020;-79
2022/08/27 16:23:08;;;;;;;1999.90;999.90;;;;;;;26.94;48.27;99096.38;10246634;23;20052;-79
2022/08/27 16:27:10;;;;;;;1999.90;999.90;;;;;;;26.81;48.65;99087.59;10243793;23;20048;-79
2022/08/27 16:31:12;;;;;;;1999.90;999.90;;;;;;;26.52;50.11;99088.94;10241306;23;20028;-79
2022/08/27 16:35:16;;;;;;;1999.90;999.90;;;;;;;26.29;50.21;99099.47;10221458;23;20111;-79
2022/08/27 16:39:24;;;;;;;1999.90;999.90;;;;;;;25.95;50.68;99094.88;10248998;23;20075;-80
2022/08/27 16:43:42;;;;;;;1999.90;999.90;;;;;;;25.53;52.90;99084.53;10246815;23;20021;-80
2022/08/27 16:53:26;;;;;;;1999.90;999.90;;;;;;;24.93;53.65;99085.13;10270348;23;20059;-80
2022/08/27 16:58:31;;;;;;;1999.90;999.90;;;;;;;24.65;54.91;99086.16;10270417;23;20474;-80
2022/08/27 17:03:10;;;;;;;1999.90;999.90;;;;;;;24.45;55.79;99089.28;10258210;23;20083;-80
2022/08/27 17:07:28;;;;;;;1999.90;999.90;;;;;;;24.29;55.53;99096.53;10246770;23;20016;-80
2022/08/27 17:12:15;;;;;;;1999.90;999.90;;;;;;;24.10;56.05;99095.06;10225399;23;20099;-80
2022/08/27 17:16:23;;;;;;;1999.90;999.90;;;;;;;23.96;56.41;99102.19;10268342;23;20424;-79
2022/08/27 17:20:45;;;;;;;1999.90;999.90;;;;;;;23.80;56.85;99108.47;10222527;23;20083;-78
2022/08/27 17:24:46;;;;;;;1999.90;999.90;;;;;;;23.64;58.12;99107.72;10248188;23;20027;-78
2022/08/27 17:28:48;;;;;;;1999.90;999.90;;;;;;;23.51;58.05;99109.38;10246566;23;20063;-77
2022/08/27 17:32:50;;;;;;;1999.90;999.90;;;;;;;23.40;58.17;99115.38;10241119;23;20028;-77
2022/08/27 17:36:52;;;;;;;1999.90;999.90;;;;;;;23.27;58.36;99111.75;10270729;23;20013;-78
2022/08/27 17:40:54;;;;;;;1999.90;999.90;;;;;;;23.12;59.94;99112.66;10245641;23;20020;-78
2022/08/27 17:45:05;;;;;;;1999.90;999.90;;;;;;;23.00;59.11;99108.97;10260784;23;20059;-78
2022/08/27 17:49:21;;;;;;;1999.90;999.90;;;;;;;22.91;60.14;99109.50;10272460;23;20033;-79
2022/08/27 17:53:27;;;;;;;1999.90;999.90;;;;;;;22.81;60.95;99114.47;10242079;23;20024;-80
2022/08/27 17:58:04;;;;;;;1999.90;999.90;;;;;;;22.65;61.72;99118.97;10272228;23;20117;-80
2022/08/27 18:02:57;;;;;;;1999.90;999.90;;;;;;;22.45;63.09;99116.63;10266290;23;20545;-79
2022/08/27 18:07:58;;;;;;;1999.90;999.90;;;;;;;22.31;63.53;99120.91;10272492;23;20032;-80
2022/08/27 18:12:40;;;;;;;1999.90;999.90;;;;;;;22.19;62.72;99128.66;10244689;23;20020;-79
2022/08/27 18:17:29;;;;;;;1999.90;999.90;;;;;;;22.04;62.95;99132.97;10218372;23;20140;-80
2022/08/27 18:22:05;;;;;;;1999.90;999.90;;;;;;;21.97;62.74;99134.28;10272377;23;20016;-78
2022/08/27 18:26:54;;;;;;;1999.90;999.90;;;;;;;21.88;62.92;99140.03;10109393;23;20310;-79
2022/08/27 18:31:18;;;;;;;1999.90;999.90;;;;;;;21.80;62.94;99139.63;10068782;23;20030;-78
2022/08/27 18:35:25;;;;;;;1999.90;999.90;;;;;;;21.73;63.79;99148.84;10050722;23;20022;-80
2022/08/27 18:39:40;;;;;;;1999.90;999.90;;;;;;;21.61;63.80;99153.81;10050460;23;20022;-80
2022/08/27 18:44:03;;;;;;;1999.90;999.90;;;;;;;21.49;64.23;99162.38;10050986;23;20211;-80
2022/08/27 18:48:42;;;;;;;1999.90;999.90;;;;;;;21.38;65.08;99170.91;10074710;23;20085;-81
2022/08/27 18:52:49;;;;;;;1999.90;999.90;;;;;;;21.28;65.95;99179.38;10052238;23;20974;-80
2022/08/27 18:57:14;;;;;;;1999.90;999.90;;;;;;;21.11;66.77;99181.03;10135528;23;20021;-79
2022/08/27 19:01:24;;;;;;;1999.90;999.90;;;;;;;20.96;66.67;99188.88;10175990;23;20041;-78
2022/08/27 19:05:33;;;;;;;1999.90;999.90;;;;;;;20.88;66.78;99181.34;10147105;23;20731;-81
2022/08/27 19:09:38;;;;;;;1999.90;999.90;;;;;;;20.77;67.70;99183.66;10255859;23;20103;-79
2022/08/27 19:13:42;;;;;;;1999.90;999.90;;;;;;;20.67;67.48;99191.19;10225165;23;20067;-80
2022/08/27 19:18:03;;;;;;;1999.90;999.90;;;;;;;20.59;67.34;99189.84;10271592;23;20029;-80
2022/08/27 19:22:23;;;;;;;1999.90;999.90;;;;;;;20.49;68.32;99198.22;10245348;23;20024;-81
2022/08/27 19:26:31;;;;;;;1999.90;999.90;;;;;;;20.40;68.78;99197.75;10224274;23;20013;-81